createdAt,value
2023-01-26T00:01:31.272Z,1.98
2023-01-26T00:03:58.523Z,1.98
2023-01-26T00:06:26.278Z,1.96
2023-01-26T00:08:59.596Z,1.96
2023-01-26T00:11:29.357Z,1.95
2023-01-26T00:13:59.938Z,1.95
2023-01-26T00:16:28.402Z,1.96
2023-01-26T00:18:55.547Z,1.94
2023-01-26T00:21:24.932Z,1.91
2023-01-26T00:23:53.405Z,1.92
2023-01-26T00:26:24.933Z,1.87
2023-01-26T00:28:53.226Z,1.80
2023-01-26T00:31:26.712Z,1.82
2023-01-26T00:33:55.625Z,1.84
2023-01-26T00:36:23.162Z,1.85
2023-01-26T00:38:50.231Z,1.87
2023-01-26T00:41:35.775Z,1.86
2023-01-26T00:44:02.862Z,1.84
2023-01-26T00:46:30.151Z,1.85
2023-01-26T00:48:57.155Z,1.82
2023-01-26T00:51:24.125Z,1.81
2023-01-26T00:53:51.087Z,1.81
2023-01-26T00:56:18.069Z,1.78
2023-01-26T00:58:45.704Z,1.75
2023-01-26T01:01:12.890Z,1.75
2023-01-26T01:03:39.791Z,1.78
2023-01-26T01:06:06.756Z,1.81
2023-01-26T01:08:33.787Z,1.81
2023-01-26T01:11:10.715Z,1.81
2023-01-26T01:13:38.807Z,1.83
2023-01-26T01:16:12.563Z,1.85
2023-01-26T01:18:39.797Z,1.85
2023-01-26T01:21:13.654Z,1.85
2023-01-26T01:23:41.428Z,1.86
2023-01-26T01:26:09.648Z,1.84
2023-01-26T01:28:37.901Z,1.85
2023-01-26T01:31:06.913Z,1.89
2023-01-26T01:33:33.976Z,1.85
2023-01-26T01:36:07.769Z,1.74
2023-01-26T01:38:35.566Z,1.80
2023-01-26T01:41:02.688Z,1.80
2023-01-26T01:43:30.205Z,1.81
2023-01-26T01:45:59.231Z,1.81
2023-01-26T01:48:43.438Z,1.83
2023-01-26T01:51:31.587Z,1.84
2023-01-26T01:54:04.719Z,1.88
2023-01-26T01:56:33.621Z,1.90
2023-01-26T01:59:03.017Z,1.91
2023-01-26T02:01:30.452Z,1.89
2023-01-26T02:04:02.336Z,1.90
2023-01-26T02:06:39.804Z,1.88
2023-01-26T02:09:07.460Z,1.88
2023-01-26T02:11:41.379Z,1.92
2023-01-26T02:14:12.175Z,1.93
2023-01-26T02:16:40.092Z,1.91
2023-01-26T02:19:29.078Z,1.87
2023-01-26T02:22:00.663Z,1.88
2023-01-26T02:24:34.393Z,1.87
2023-01-26T02:27:02.184Z,1.87
2023-01-26T02:29:29.259Z,1.87
2023-01-26T02:31:56.299Z,1.84
2023-01-26T02:34:25.252Z,1.83
2023-01-26T02:37:00.015Z,1.82
2023-01-26T02:40:00.633Z,1.81
2023-01-26T02:42:41.672Z,1.78
2023-01-26T02:45:12.981Z,1.76
2023-01-26T02:47:40.551Z,1.74
2023-01-26T02:50:11.346Z,1.76
2023-01-26T02:52:38.718Z,1.78
2023-01-26T02:55:22.408Z,1.78
2023-01-26T02:58:10.736Z,1.75
2023-01-26T03:00:37.972Z,1.76
2023-01-26T03:03:15.863Z,1.77
2023-01-26T03:05:43.174Z,1.78
2023-01-26T03:08:10.209Z,1.77
2023-01-26T03:10:37.799Z,1.73
2023-01-26T03:13:05.018Z,1.74
2023-01-26T03:15:42.764Z,1.76
2023-01-26T03:18:34.558Z,1.74
2023-01-26T03:21:24.072Z,1.74
2023-01-26T03:24:09.940Z,1.77
2023-01-26T03:26:55.931Z,1.79
2023-01-26T03:29:23.037Z,1.77
2023-01-26T03:31:50.214Z,1.76
2023-01-26T03:34:17.195Z,1.76
2023-01-26T03:36:44.171Z,1.77
2023-01-26T03:39:31.116Z,1.78
2023-01-26T03:42:17.072Z,1.78
2023-01-26T03:45:02.564Z,1.77
2023-01-26T03:47:50.539Z,1.80
2023-01-26T03:50:36.090Z,1.78
2023-01-26T03:53:21.544Z,1.77
2023-01-26T03:56:07.095Z,1.74
2023-01-26T03:58:34.035Z,1.71
2023-01-26T04:01:01.059Z,1.71
2023-01-26T04:03:46.438Z,1.72
2023-01-26T04:06:31.855Z,1.72
2023-01-26T04:08:58.814Z,1.76
2023-01-26T04:11:25.769Z,1.77
2023-01-26T04:14:11.317Z,1.79
2023-01-26T04:16:56.972Z,1.77
2023-01-26T04:19:42.570Z,1.82
2023-01-26T04:22:09.522Z,1.86
2023-01-26T04:24:36.486Z,1.86
2023-01-26T04:27:03.490Z,1.81
2023-01-26T04:29:30.296Z,1.72
2023-01-26T04:31:57.248Z,1.73
2023-01-26T04:34:24.223Z,1.74
2023-01-26T04:36:51.197Z,1.76
2023-01-26T04:39:18.215Z,1.77
2023-01-26T04:41:45.873Z,1.81
2023-01-26T04:44:12.864Z,1.81
2023-01-26T04:46:39.770Z,1.82
2023-01-26T04:49:06.756Z,1.83
2023-01-26T04:51:33.717Z,1.82
2023-01-26T04:54:00.725Z,1.78
2023-01-26T04:56:31.718Z,1.74
2023-01-26T04:59:05.266Z,1.73
2023-01-26T05:01:32.667Z,1.74
2023-01-26T05:04:02.970Z,1.78
2023-01-26T05:06:30.631Z,1.78
2023-01-26T05:08:58.561Z,1.82
2023-01-26T05:11:25.824Z,1.82
2023-01-26T05:13:52.766Z,1.80
2023-01-26T05:16:19.888Z,1.80
2023-01-26T05:18:47.100Z,1.78
2023-01-26T05:21:14.239Z,1.77
2023-01-26T05:23:41.323Z,1.77
2023-01-26T05:26:08.930Z,1.76
2023-01-26T05:28:36.537Z,1.77
2023-01-26T05:31:03.824Z,1.77
2023-01-26T05:33:31.565Z,1.76
2023-01-26T05:35:58.801Z,1.77
2023-01-26T05:38:26.409Z,1.76
2023-01-26T05:40:53.362Z,1.77
2023-01-26T05:43:20.275Z,1.78
2023-01-26T05:45:47.347Z,1.78
2023-01-26T05:48:14.349Z,1.81
2023-01-26T05:50:41.357Z,1.81
2023-01-26T05:53:08.304Z,1.82
2023-01-26T05:55:35.328Z,1.80
2023-01-26T05:58:02.331Z,1.80
2023-01-26T06:00:29.291Z,1.81
2023-01-26T06:02:56.311Z,1.82
2023-01-26T06:05:23.292Z,1.83
2023-01-26T06:07:50.233Z,1.83
2023-01-26T06:10:17.363Z,1.73
2023-01-26T06:12:44.407Z,1.65
2023-01-26T06:15:12.689Z,1.60
2023-01-26T06:17:46.879Z,1.56
2023-01-26T06:20:14.808Z,1.63
2023-01-26T06:22:41.812Z,1.70
2023-01-26T06:25:09.570Z,1.66
2023-01-26T06:27:36.457Z,1.61
2023-01-26T06:30:05.518Z,1.56
2023-01-26T06:32:32.475Z,1.56
2023-01-26T06:34:59.433Z,1.53
2023-01-26T06:37:26.381Z,1.52
2023-01-26T06:39:53.317Z,1.55
2023-01-26T06:42:20.255Z,1.59
2023-01-26T06:44:47.245Z,1.60
2023-01-26T06:47:14.960Z,1.62
2023-01-26T06:49:41.903Z,1.60
2023-01-26T06:52:32.087Z,1.56
2023-01-26T06:55:00.505Z,1.57
2023-01-26T06:57:27.611Z,1.57
2023-01-26T06:59:56.135Z,1.58
2023-01-26T07:02:23.363Z,1.59
2023-01-26T07:04:51.176Z,1.62
2023-01-26T07:07:18.162Z,1.64
2023-01-26T07:09:45.140Z,1.65
2023-01-26T07:12:12.467Z,1.67
2023-01-26T07:14:39.391Z,1.65
2023-01-26T07:17:06.263Z,1.65
2023-01-26T07:19:33.958Z,1.64
2023-01-26T07:22:01.735Z,1.58
2023-01-26T07:24:29.164Z,1.53
2023-01-26T07:26:56.722Z,1.49
2023-01-26T07:29:23.847Z,1.49
2023-01-26T07:31:51.076Z,1.49
2023-01-26T07:34:18.063Z,1.47
2023-01-26T07:36:45.582Z,1.45
2023-01-26T07:39:12.550Z,1.46
2023-01-26T07:41:39.583Z,1.45
2023-01-26T07:44:10.574Z,1.46
2023-01-26T07:46:37.735Z,1.49
2023-01-26T07:49:04.733Z,1.50
2023-01-26T07:51:31.722Z,1.49
2023-01-26T07:53:59.110Z,1.49
2023-01-26T07:56:26.435Z,1.48
2023-01-26T07:58:54.852Z,1.46
2023-01-26T08:01:23.008Z,1.43
2023-01-26T08:03:52.158Z,1.41
2023-01-26T08:06:20.360Z,1.40
2023-01-26T08:08:53.606Z,1.36
2023-01-26T08:11:23.423Z,1.29
2023-01-26T08:13:50.458Z,1.27
2023-01-26T08:16:18.082Z,1.28
2023-01-26T08:18:46.351Z,1.27
2023-01-26T08:21:15.971Z,1.27
2023-01-26T08:23:43.187Z,1.28
2023-01-26T08:26:13.354Z,1.31
2023-01-26T08:28:41.373Z,1.33
2023-01-26T08:31:12.388Z,1.31
2023-01-26T08:33:42.621Z,1.29
2023-01-26T08:36:13.419Z,1.27
2023-01-26T08:38:42.120Z,1.26
2023-01-26T08:41:09.905Z,1.24
2023-01-26T08:43:37.079Z,1.21
2023-01-26T08:46:05.226Z,1.22
2023-01-26T08:48:32.462Z,1.23
2023-01-26T08:51:02.603Z,1.24
2023-01-26T08:53:34.725Z,1.25
2023-01-26T08:56:03.991Z,1.30
2023-01-26T08:58:31.591Z,1.33
2023-01-26T09:00:58.694Z,1.35
2023-01-26T09:03:26.099Z,1.35
2023-01-26T09:05:53.059Z,1.36
2023-01-26T09:08:20.028Z,1.38
2023-01-26T09:10:47.069Z,1.39
2023-01-26T09:13:14.007Z,1.38
2023-01-26T09:15:41.061Z,1.35
2023-01-26T09:18:08.011Z,1.35
2023-01-26T09:20:35.017Z,1.32
2023-01-26T09:23:02.021Z,1.35
2023-01-26T09:25:29.147Z,1.39
2023-01-26T09:27:56.397Z,1.41
2023-01-26T09:30:25.008Z,1.38
2023-01-26T09:32:52.256Z,1.36
2023-01-26T09:35:19.505Z,1.35
2023-01-26T09:37:46.525Z,1.36
2023-01-26T09:40:24.474Z,1.36
2023-01-26T09:43:44.001Z,1.36
2023-01-26T09:46:42.879Z,1.36
2023-01-26T09:49:32.137Z,1.32
2023-01-26T09:52:04.758Z,1.32
2023-01-26T09:55:03.105Z,1.29
2023-01-26T09:57:44.555Z,1.30
2023-01-26T10:00:28.741Z,1.30
2023-01-26T10:03:02.421Z,1.32
2023-01-26T10:05:41.775Z,1.36
2023-01-26T10:08:13.725Z,1.38
2023-01-26T10:11:12.023Z,1.34
2023-01-26T10:13:39.111Z,1.35
2023-01-26T10:16:10.604Z,1.35
2023-01-26T10:18:59.310Z,1.38
2023-01-26T10:21:34.168Z,1.38
2023-01-26T10:24:02.993Z,1.41
2023-01-26T10:26:34.363Z,1.45
2023-01-26T10:29:02.156Z,1.45
2023-01-26T10:31:32.764Z,1.44
2023-01-26T10:34:15.704Z,1.44
2023-01-26T10:36:46.318Z,1.41
2023-01-26T10:39:18.075Z,1.46
2023-01-26T10:42:04.219Z,1.46
2023-01-26T10:44:37.757Z,1.46
2023-01-26T10:47:25.680Z,1.41
2023-01-26T10:49:52.727Z,1.42
2023-01-26T10:52:23.510Z,1.48
2023-01-26T10:55:09.907Z,1.52
2023-01-26T10:57:41.996Z,1.56
2023-01-26T11:00:32.829Z,1.62
2023-01-26T11:03:19.279Z,1.65
2023-01-26T11:05:49.145Z,1.71
2023-01-26T11:08:37.068Z,1.73
2023-01-26T11:11:07.750Z,1.77
2023-01-26T11:13:34.691Z,1.81
2023-01-26T11:16:24.430Z,1.72
2023-01-26T11:19:13.613Z,1.70
2023-01-26T11:22:07.385Z,1.69
2023-01-26T11:24:42.631Z,1.70
2023-01-26T11:27:21.581Z,1.70
2023-01-26T11:30:34.530Z,1.71
2023-01-26T11:33:18.190Z,1.76
2023-01-26T11:36:06.091Z,1.82
2023-01-26T11:38:49.673Z,1.87
2023-01-26T11:41:46.825Z,1.88
2023-01-26T11:44:43.284Z,1.82
2023-01-26T11:47:12.891Z,1.78
2023-01-26T11:49:57.549Z,1.75
2023-01-26T11:53:08.848Z,1.71
2023-01-26T11:55:56.790Z,1.74
2023-01-26T11:58:46.849Z,1.75
2023-01-26T12:01:29.023Z,1.77
2023-01-26T12:03:57.077Z,1.79
2023-01-26T12:06:44.082Z,1.83
2023-01-26T12:09:38.615Z,1.87
2023-01-26T12:12:22.765Z,1.92
2023-01-26T12:15:13.289Z,1.93
2023-01-26T12:18:04.094Z,1.93
2023-01-26T12:21:03.322Z,1.94
2023-01-26T12:24:02.927Z,1.84
2023-01-26T12:26:37.452Z,1.81
2023-01-26T12:29:53.973Z,1.83
2023-01-26T12:32:22.644Z,1.83
2023-01-26T12:34:49.774Z,1.81
2023-01-26T12:37:32.610Z,1.76
2023-01-26T12:40:09.276Z,1.76
2023-01-26T12:43:12.974Z,1.73
2023-01-26T12:45:42.663Z,1.75
2023-01-26T12:48:50.879Z,1.72
2023-01-26T12:51:33.738Z,1.65
2023-01-26T12:54:09.312Z,1.61
2023-01-26T12:56:52.623Z,1.62
2023-01-26T12:59:47.630Z,1.67
2023-01-26T13:02:26.885Z,1.65
2023-01-26T13:04:54.335Z,1.65
2023-01-26T13:07:37.770Z,1.65
2023-01-26T13:10:18.005Z,1.65
2023-01-26T13:12:49.192Z,1.71
2023-01-26T13:15:20.190Z,1.76
2023-01-26T13:17:59.260Z,1.82
2023-01-26T13:20:46.040Z,1.84
2023-01-26T13:23:28.425Z,1.87
2023-01-26T13:26:33.461Z,1.91
2023-01-26T13:29:25.148Z,1.94
2023-01-26T13:31:54.981Z,1.97
2023-01-26T13:34:43.107Z,1.96
2023-01-26T13:37:17.502Z,1.97
2023-01-26T13:39:52.827Z,1.96
2023-01-26T13:42:28.449Z,1.96
2023-01-26T13:45:04.759Z,1.97
2023-01-26T13:47:43.912Z,2.00
2023-01-26T13:50:34.669Z,2.01
2023-01-26T13:53:02.168Z,2.03
2023-01-26T13:55:33.508Z,2.03
2023-01-26T13:58:16.243Z,1.99
2023-01-26T14:00:43.644Z,1.97
2023-01-26T14:03:23.635Z,1.99
2023-01-26T14:06:09.088Z,2.00
2023-01-26T14:08:37.898Z,1.96
2023-01-26T14:11:21.098Z,1.94
2023-01-26T14:13:56.073Z,1.98
2023-01-26T14:16:36.162Z,2.00
2023-01-26T14:19:17.401Z,1.97
2023-01-26T14:21:57.141Z,2.02
2023-01-26T14:24:30.217Z,1.95
2023-01-26T14:26:57.447Z,1.86
2023-01-26T14:29:30.341Z,1.73
2023-01-26T14:31:59.761Z,1.63
2023-01-26T14:34:29.844Z,1.55
2023-01-26T14:37:15.826Z,1.46
2023-01-26T14:39:45.802Z,1.42
2023-01-26T14:42:15.721Z,1.42
2023-01-26T14:44:43.034Z,1.46
2023-01-26T14:47:23.515Z,1.50
2023-01-26T14:50:12.005Z,1.53
2023-01-26T14:52:44.589Z,1.58
2023-01-26T14:55:26.509Z,1.59
2023-01-26T14:57:54.452Z,1.62
2023-01-26T15:00:35.857Z,1.62
2023-01-26T15:03:13.015Z,1.62
2023-01-26T15:05:43.465Z,1.65
2023-01-26T15:08:24.593Z,1.65
2023-01-26T15:11:16.357Z,1.62
2023-01-26T15:13:47.070Z,1.56
2023-01-26T15:16:20.684Z,1.57
2023-01-26T15:19:03.053Z,1.59
2023-01-26T15:21:35.102Z,1.63
2023-01-26T15:24:03.684Z,1.64
2023-01-26T15:26:36.014Z,1.61
2023-01-26T15:29:24.282Z,1.60
2023-01-26T15:31:56.785Z,1.57
2023-01-26T15:34:42.238Z,1.53
2023-01-26T15:37:33.700Z,1.50
2023-01-26T15:40:00.701Z,1.48
2023-01-26T15:42:32.948Z,1.41
2023-01-26T15:44:59.918Z,1.36
2023-01-26T15:47:26.915Z,1.26
2023-01-26T15:49:53.950Z,1.23
2023-01-26T15:52:30.492Z,1.23
2023-01-26T15:54:57.529Z,1.28
2023-01-26T15:57:24.446Z,1.32
2023-01-26T15:59:51.411Z,1.31
2023-01-26T16:02:21.049Z,1.25
2023-01-26T16:04:48.443Z,1.17
2023-01-26T16:07:18.552Z,1.11
2023-01-26T16:09:45.643Z,1.14
2023-01-26T16:12:30.567Z,1.15
2023-01-26T16:14:58.780Z,1.12
2023-01-26T16:17:26.057Z,1.18
2023-01-26T16:19:52.963Z,1.23
2023-01-26T16:22:19.998Z,1.25
2023-01-26T16:24:47.250Z,1.31
2023-01-26T16:27:14.228Z,1.32
2023-01-26T16:29:41.224Z,1.38
2023-01-26T16:32:29.658Z,1.39
2023-01-26T16:34:56.691Z,1.42
2023-01-26T16:37:23.624Z,1.45
2023-01-26T16:39:50.591Z,1.48
2023-01-26T16:42:21.210Z,1.48
2023-01-26T16:44:48.520Z,1.41
2023-01-26T16:47:15.451Z,1.32
2023-01-26T16:49:42.404Z,1.26
2023-01-26T16:52:10.188Z,1.15
2023-01-26T16:54:37.363Z,1.06
2023-01-26T16:57:04.566Z,1.02
2023-01-26T16:59:31.693Z,0.98
2023-01-26T17:01:58.777Z,0.99
2023-01-26T17:04:25.853Z,0.99
2023-01-26T17:06:52.874Z,0.92
2023-01-26T17:09:21.137Z,0.85
2023-01-26T17:11:48.115Z,0.81
2023-01-26T17:14:15.075Z,0.81
2023-01-26T17:16:42.138Z,0.78
2023-01-26T17:19:09.671Z,0.80
2023-01-26T17:21:37.171Z,0.82
2023-01-26T17:24:04.621Z,0.86
2023-01-26T17:26:31.716Z,0.89
2023-01-26T17:28:58.700Z,0.87
2023-01-26T17:31:25.822Z,0.92
2023-01-26T17:33:54.523Z,0.99
2023-01-26T17:36:21.564Z,1.04
2023-01-26T17:38:49.561Z,1.06
2023-01-26T17:41:17.518Z,1.10
2023-01-26T17:43:45.036Z,1.18
2023-01-26T17:46:17.974Z,1.23
2023-01-26T17:48:45.936Z,1.28
2023-01-26T17:51:19.038Z,1.31
2023-01-26T17:53:49.577Z,1.34
2023-01-26T17:56:19.453Z,1.38
2023-01-26T17:58:52.805Z,1.39
2023-01-26T18:01:22.342Z,1.39
2023-01-26T18:03:49.407Z,1.40
2023-01-26T18:06:16.861Z,1.45
2023-01-26T18:08:43.892Z,1.44
2023-01-26T18:11:14.572Z,1.42
2023-01-26T18:13:42.164Z,1.42
2023-01-26T18:16:13.282Z,1.38
2023-01-26T18:18:40.245Z,1.33
2023-01-26T18:21:18.962Z,1.31
2023-01-26T18:23:59.196Z,1.24
2023-01-26T18:26:30.033Z,1.23
2023-01-26T18:28:57.419Z,1.25
2023-01-26T18:31:35.536Z,1.26
2023-01-26T18:34:04.421Z,1.30
2023-01-26T18:36:32.521Z,1.36
2023-01-26T18:39:04.159Z,1.40
2023-01-26T18:41:31.601Z,1.39
2023-01-26T18:43:59.166Z,1.38
2023-01-26T18:46:28.218Z,1.38
2023-01-26T18:49:00.628Z,1.39
2023-01-26T18:51:30.394Z,1.40
2023-01-26T18:53:58.187Z,1.39
2023-01-26T18:56:25.269Z,1.39
2023-01-26T18:58:53.869Z,1.40
2023-01-26T19:01:22.340Z,1.41
2023-01-26T19:03:55.049Z,1.47
2023-01-26T19:06:24.459Z,1.46
2023-01-26T19:09:02.659Z,1.44
2023-01-26T19:11:33.528Z,1.42
2023-01-26T19:14:02.619Z,1.33
2023-01-26T19:16:30.874Z,1.28
2023-01-26T19:18:58.372Z,1.22
2023-01-26T19:21:27.545Z,1.16
2023-01-26T19:23:58.519Z,1.18
2023-01-26T19:26:30.807Z,1.23
2023-01-26T19:28:58.971Z,1.28
2023-01-26T19:31:28.152Z,1.31
2023-01-26T19:34:04.393Z,1.31
2023-01-26T19:36:34.072Z,1.37
2023-01-26T19:39:02.614Z,1.41
2023-01-26T19:41:29.691Z,1.44
2023-01-26T19:43:56.791Z,1.41
2023-01-26T19:46:23.834Z,1.41
2023-01-26T19:48:51.106Z,1.39
2023-01-26T19:51:26.774Z,1.39
2023-01-26T19:53:59.057Z,1.35
2023-01-26T19:56:32.959Z,1.34
2023-01-26T19:59:04.293Z,1.34
2023-01-26T20:01:32.715Z,1.31
2023-01-26T20:04:03.243Z,1.29
2023-01-26T20:06:33.380Z,1.32
2023-01-26T20:09:00.970Z,1.34
2023-01-26T20:11:29.721Z,1.36
2023-01-26T20:14:11.406Z,1.36
2023-01-26T20:16:38.661Z,1.38
2023-01-26T20:19:06.388Z,1.38
2023-01-26T20:21:33.867Z,1.39
2023-01-26T20:24:05.576Z,1.40
2023-01-26T20:26:33.226Z,1.38
2023-01-26T20:29:00.419Z,1.38
2023-01-26T20:31:27.813Z,1.38
2023-01-26T20:33:55.323Z,1.39
2023-01-26T20:36:27.219Z,1.41
2023-01-26T20:38:54.733Z,1.43
2023-01-26T20:41:30.094Z,1.45
2023-01-26T20:44:01.986Z,1.44
2023-01-26T20:46:36.800Z,1.44
2023-01-26T20:49:05.323Z,1.47
2023-01-26T20:51:35.945Z,1.49
2023-01-26T20:54:06.591Z,1.48
2023-01-26T20:56:35.512Z,1.46
2023-01-26T20:59:03.220Z,1.47
2023-01-26T21:01:33.655Z,1.48
2023-01-26T21:04:02.265Z,1.50
2023-01-26T21:06:29.998Z,1.52
2023-01-26T21:08:59.267Z,1.56
2023-01-26T21:11:30.412Z,1.60
2023-01-26T21:14:01.102Z,1.63
2023-01-26T21:16:29.148Z,1.63
2023-01-26T21:18:56.117Z,1.62
2023-01-26T21:21:23.158Z,1.63
2023-01-26T21:23:50.856Z,1.64
2023-01-26T21:26:22.336Z,1.68
2023-01-26T21:28:59.023Z,1.66
2023-01-26T21:31:30.467Z,1.76
2023-01-26T21:33:59.803Z,1.76
2023-01-26T21:36:30.957Z,1.72
2023-01-26T21:38:59.451Z,1.77
2023-01-26T21:41:48.207Z,1.80
2023-01-26T21:44:21.130Z,1.79
2023-01-26T21:46:52.279Z,1.79
2023-01-26T21:49:19.710Z,1.81
2023-01-26T21:52:05.235Z,1.83
2023-01-26T21:54:33.318Z,1.83
2023-01-26T21:57:02.198Z,1.85
2023-01-26T21:59:30.405Z,1.85
2023-01-26T22:01:58.532Z,1.88
2023-01-26T22:04:31.066Z,1.88
2023-01-26T22:06:58.370Z,1.92
2023-01-26T22:09:25.598Z,1.91
2023-01-26T22:11:52.877Z,1.93
2023-01-26T22:14:26.259Z,1.93
2023-01-26T22:16:53.534Z,1.93
2023-01-26T22:19:20.604Z,1.89
2023-01-26T22:21:47.602Z,1.83
2023-01-26T22:24:15.058Z,1.77
2023-01-26T22:26:42.576Z,1.75
2023-01-26T22:29:12.043Z,1.75
2023-01-26T22:31:39.080Z,1.77
2023-01-26T22:34:06.082Z,1.83
2023-01-26T22:36:33.483Z,1.88
2023-01-26T22:39:00.997Z,1.93
2023-01-26T22:41:30.419Z,1.97
2023-01-26T22:43:59.931Z,1.96
2023-01-26T22:46:29.310Z,1.91
2023-01-26T22:48:58.561Z,1.78
2023-01-26T22:51:29.441Z,1.67
2023-01-26T22:53:58.056Z,1.66
2023-01-26T22:56:26.492Z,1.65
2023-01-26T22:59:00.592Z,1.66
2023-01-26T23:01:33.094Z,1.64
2023-01-26T23:04:00.795Z,1.61
2023-01-26T23:06:28.393Z,1.58
2023-01-26T23:08:55.559Z,1.56
2023-01-26T23:11:26.749Z,1.61
2023-01-26T23:13:55.396Z,1.65
2023-01-26T23:16:23.758Z,1.72
2023-01-26T23:18:52.320Z,1.77
2023-01-26T23:21:20.189Z,1.83
2023-01-26T23:23:47.443Z,1.90
2023-01-26T23:26:14.667Z,1.95
2023-01-26T23:28:43.624Z,1.99
2023-01-26T23:31:13.081Z,2.01
2023-01-26T23:33:40.979Z,2.02
2023-01-26T23:36:09.870Z,2.05
2023-01-26T23:38:37.076Z,2.04
2023-01-26T23:41:08.714Z,1.97
2023-01-26T23:43:35.790Z,1.94
2023-01-26T23:46:03.321Z,1.88
2023-01-26T23:48:30.605Z,1.89
2023-01-26T23:51:00.006Z,1.86
2023-01-26T23:53:28.175Z,1.83
2023-01-26T23:55:56.039Z,1.81
2023-01-26T23:58:23.109Z,1.81
